Fairmont, Minnesota
Current Conditions -  °F | °C
As of 4:35 PM on Wednesday 22 Oct 2014 (Local Time) from KFRM Reporting Station
Clear Clear  
Wind Chill: 63°   Ceiling: Unl
Heat Index: 63°   Visibility: 10mi
Dew Point: 43°   Wind: 22mph
Humidity: 48%   Direction: 150°SSE
Pressure: 30.02"   Gusts: 31mph
Location:  43.65°N, 94.46°W
Report Text: KFRM 222135Z AUTO 15019G27KT 10SM CLR 17/06 A3002 RMK AO1
Loading
Personal Weather Stations






























Interactive Weather Map
Tropical Storm Tracking
New forecast layout! Learn more

10-Day Weather Forecast

Advertisements
Track Severe Weather on mobile